Time;durP1;ratioP1;P1;durP2;ratioP2;P2;SDS_P1;SDS_P2;PMS_P1;PMS_P2;Temp;Humidity;BMP_temperature;BMP_pressure;BME280_temperature;BME280_humidity;BME280_pressure;Samples;Min_cycle;Max_cycle;Signal;HPM_P1;HPM_P2
2023/01/26 17:16:46;;;;;;;;;;;;;;;1.00;78.89;98358.00;5605241;23;19980;-65
2023/01/26 17:19:11;;;;;;;;;;;;;;;1.02;77.18;98360.53;4967916;28;19954;-65
2023/01/26 17:21:36;;;;;;;;;;;;;;;1.04;77.85;98359.63;4972495;28;20373;-65
2023/01/26 17:24:02;;;;;;;;;;;;;;;1.07;77.34;98358.69;4967223;28;20381;-65
2023/01/26 17:26:27;;;;;;;;;;;;;;;1.15;78.06;98362.75;4969292;28;20432;-65
2023/01/26 17:28:52;;;;;;;;;;;;;;;1.00;76.26;98358.00;4973995;28;19980;-64
2023/01/26 17:31:18;;;;;;;;;;;;;;;1.11;78.34;98358.56;4969776;28;19961;-65
2023/01/26 17:33:44;;;;;;;;;;;;;;;1.23;79.01;98359.09;4972038;28;19921;-64
2023/01/26 17:36:09;;;;;;;;;;;;;;;1.31;79.46;98362.31;4968572;28;19922;-64
2023/01/26 17:38:34;;;;;;;;;;;;;;;1.43;80.31;98367.97;4966899;28;19917;-64
2023/01/26 17:40:59;;;;;;;;;;;;;;;1.57;80.61;98364.13;4973753;28;20373;-65
2023/01/26 17:43:25;;;;;;;;;;;;;;;1.65;79.87;98367.31;4972693;28;19949;-63
2023/01/26 17:45:50;;;;;;;;;;;;;;;1.62;76.27;98364.84;4968465;28;19976;-63
2023/01/26 17:48:15;;;;;;;;;;;;;;;1.52;76.06;98372.03;4975183;28;19961;-64
2023/01/26 17:50:47;;;;;;;;;;;;;;;1.54;77.05;98365.06;4974596;28;19918;-63
2023/01/26 17:53:12;;;;;;;;;;;;;;;1.76;79.53;98365.28;4972704;28;19914;-62
2023/01/26 17:55:38;;;;;;;;;;;;;;;1.62;75.53;98357.09;4964740;28;20441;-64
2023/01/26 17:58:04;;;;;;;;;;;;;;;1.21;75.75;98356.56;4974854;28;20005;-63
2023/01/26 18:00:29;;;;;;;;;;;;;;;1.23;76.66;98364.25;4975234;28;20005;-64
2023/01/26 18:02:55;;;;;;;;;;;;;;;1.27;77.03;98356.34;4973620;28;20001;-64
2023/01/26 18:05:20;;;;;;;;;;;;;;;1.26;77.08;98354.69;4974371;28;20329;-64
2023/01/26 18:07:46;;;;;;;;;;;;;;;1.14;76.01;98355.88;4974961;28;19925;-64
2023/01/26 18:10:11;;;;;;;;;;;;;;;1.08;77.18;98366.38;4975211;28;19922;-64
2023/01/26 18:12:36;;;;;;;;;;;;;;;1.02;77.66;98353.63;4973088;28;19933;-64
2023/01/26 18:15:02;;;;;;;;;;;;;;;1.00;77.44;98358.00;4974594;28;19973;-64
2023/01/26 18:17:27;;;;;;;;;;;;;;;0.99;77.44;98366.63;4974570;28;19968;-63
2023/01/26 18:19:52;;;;;;;;;;;;;;;0.87;77.04;98364.41;4965820;28;19918;-64
2023/01/26 18:22:17;;;;;;;;;;;;;;;0.87;77.36;98370.41;4974147;28;19922;-64
2023/01/26 18:24:42;;;;;;;;;;;;;;;0.78;77.58;98365.47;4972792;28;19961;-62
2023/01/26 18:27:08;;;;;;;;;;;;;;;0.77;78.20;98366.38;4973734;28;19918;-64
2023/01/26 18:29:33;;;;;;;;;;;;;;;0.85;78.48;98364.41;4972838;28;19973;-64
2023/01/26 18:31:58;;;;;;;;;;;;;;;0.82;78.53;98371.41;4973688;28;20032;-64
2023/01/26 18:34:23;;;;;;;;;;;;;;;0.67;77.95;98370.94;4973271;28;20012;-64
2023/01/26 18:36:48;;;;;;;;;;;;;;;0.63;77.83;98371.91;4974098;28;19918;-65
2023/01/26 18:39:15;;;;;;;;;;;;;;;0.62;78.43;98372.78;4974030;28;19961;-65
2023/01/26 18:41:42;;;;;;;;;;;;;;;0.43;78.88;98376.72;4970905;28;20030;-66
2023/01/26 18:44:07;;;;;;;;;;;;;;;0.48;78.66;98367.13;4969845;28;19925;-65
2023/01/26 18:46:32;;;;;;;;;;;;;;;0.36;79.53;98364.84;4974517;28;19914;-63
2023/01/26 18:49:01;;;;;;;;;;;;;;;0.42;78.98;98369.88;4973384;28;20004;-65
2023/01/26 18:51:27;;;;;;;;;;;;;;;0.25;80.04;98372.03;4973283;28;20323;-64
2023/01/26 18:53:52;;;;;;;;;;;;;;;0.04;80.17;98357.91;4971626;28;20001;-64
2023/01/26 18:56:18;;;;;;;;;;;;;;;0.03;81.10;98364.78;4972677;28;20373;-65
2023/01/26 18:58:43;;;;;;;;;;;;;;;-0.09;81.39;98363.34;4973604;28;19918;-64
2023/01/26 19:01:12;;;;;;;;;;;;;;;0.02;81.99;98352.78;4966902;28;19924;-65
2023/01/26 19:03:38;;;;;;;;;;;;;;;0.04;81.68;98356.19;4972637;28;19919;-63
2023/01/26 19:06:04;;;;;;;;;;;;;;;0.03;81.77;98359.63;4984540;28;20017;-65
2023/01/26 19:08:29;;;;;;;;;;;;;;;-0.06;81.69;98368.44;4963778;28;20001;-63
2023/01/26 19:10:54;;;;;;;;;;;;;;;-0.13;81.76;98366.03;4970318;28;20013;-64
2023/01/26 19:13:20;;;;;;;;;;;;;;;-0.11;81.70;98369.41;4968444;28;20000;-63
2023/01/26 19:15:45;;;;;;;;;;;;;;;-0.21;81.27;98370.50;4968305;28;19922;-64
2023/01/26 19:18:10;;;;;;;;;;;;;;;-0.14;80.99;98370.31;4949528;28;19925;-64
2023/01/26 19:20:36;;;;;;;;;;;;;;;-0.18;80.53;98367.88;4971132;28;19918;-64
2023/01/26 19:23:02;;;;;;;;;;;;;;;-0.25;80.88;98367.16;4966078;28;20291;-62
2023/01/26 19:25:27;;;;;;;;;;;;;;;-0.16;81.17;98369.53;4970319;28;19925;-62
2023/01/26 19:27:53;;;;;;;;;;;;;;;-0.21;81.27;98363.63;4968085;28;20304;-63
2023/01/26 19:30:18;;;;;;;;;;;;;;;-0.18;82.07;98368.72;4969153;28;20309;-63
2023/01/26 19:35:29;;;;;;;;;;;;;;;-0.06;81.82;98362.44;4965841;28;19976;-64
2023/01/26 19:37:57;;;;;;;;;;;;;;;0.05;81.62;98359.59;4962206;28;21439;-65
2023/01/26 19:40:22;;;;;;;;;;;;;;;0.12;81.28;98362.00;4970085;28;20012;-64
2023/01/26 19:42:47;;;;;;;;;;;;;;;0.07;81.23;98363.84;4971534;28;20325;-64
2023/01/26 19:45:12;;;;;;;;;;;;;;;0.05;81.34;98359.59;4970228;28;19918;-63
2023/01/26 19:47:39;;;;;;;;;;;;;;;0.08;81.56;98368.13;4971720;28;20024;-64
2023/01/26 19:50:05;;;;;;;;;;;;;;;0.15;80.61;98364.50;4971740;28;20329;-65
2023/01/26 19:52:30;;;;;;;;;;;;;;;0.04;81.04;98371.66;4972357;28;19918;-65
2023/01/26 19:54:55;;;;;;;;;;;;;;;0.01;81.42;98369.16;4971867;28;19933;-65
2023/01/26 19:57:22;;;;;;;;;;;;;;;0.08;82.21;98365.53;4968959;28;20378;-65
2023/01/26 19:59:47;;;;;;;;;;;;;;;0.05;81.55;98368.19;4971652;28;19964;-65
2023/01/26 20:02:13;;;;;;;;;;;;;;;0.05;81.81;98365.59;4968904;28;20016;-64
2023/01/26 20:04:38;;;;;;;;;;;;;;;-0.06;82.08;98362.44;4969574;28;20313;-63
2023/01/26 20:07:05;;;;;;;;;;;;;;;-0.06;82.14;98368.44;4972879;28;20308;-65
2023/01/26 20:09:31;;;;;;;;;;;;;;;-0.03;82.12;98372.69;4971621;28;19918;-65
2023/01/26 20:11:56;;;;;;;;;;;;;;;-0.15;81.71;98367.78;4972364;28;19925;-65
2023/01/26 20:14:21;;;;;;;;;;;;;;;-0.13;82.61;98369.47;4973122;28;20270;-64
2023/01/26 20:16:46;;;;;;;;;;;;;;;-0.11;82.25;98362.53;4970312;28;20325;-65
2023/01/26 20:19:12;;;;;;;;;;;;;;;-0.12;82.84;98370.31;4967719;28;19964;-65
2023/01/26 20:21:37;;;;;;;;;;;;;;;-0.15;82.10;98367.78;4971747;28;19914;-65
2023/01/26 20:24:03;;;;;;;;;;;;;;;-0.12;82.89;98365.16;4970809;28;19965;-65
2023/01/26 20:26:28;;;;;;;;;;;;;;;-0.16;82.37;98371.25;4963613;28;19953;-66
2023/01/26 20:28:53;;;;;;;;;;;;;;;-0.30;82.57;98367.25;4970513;28;19918;-65
2023/01/26 20:31:19;;;;;;;;;;;;;;;-0.41;83.14;98366.66;4975148;28;19925;-66
2023/01/26 20:33:48;;;;;;;;;;;;;;;-0.38;83.26;98371.75;4972586;28;19921;-65
2023/01/26 20:36:15;;;;;;;;;;;;;;;-0.36;83.43;98379.44;4975905;28;20432;-64
2023/01/26 20:38:40;;;;;;;;;;;;;;;-0.32;83.50;98381.91;4970758;28;19915;-65
2023/01/26 20:41:09;;;;;;;;;;;;;;;-0.26;83.28;98374.03;4976456;28;19925;-65
2023/01/26 20:43:37;;;;;;;;;;;;;;;-0.27;83.29;98382.66;4975802;28;20284;-65
2023/01/26 20:46:03;;;;;;;;;;;;;;;-0.21;82.81;98379.09;4974809;28;20401;-65
2023/01/26 20:48:28;;;;;;;;;;;;;;;-0.28;83.31;98378.38;4975436;28;19914;-64
2023/01/26 20:50:54;;;;;;;;;;;;;;;-0.23;82.90;98386.03;4974106;28;19953;-66
2023/01/26 20:53:20;;;;;;;;;;;;;;;-0.28;83.73;98386.09;4972782;28;19918;-64
2023/01/26 20:55:46;;;;;;;;;;;;;;;-0.37;82.76;98388.91;4976148;28;19922;-66
2023/01/26 20:58:11;;;;;;;;;;;;;;;-0.34;82.73;98385.41;4976335;28;19934;-65
2023/01/26 21:00:36;;;;;;;;;;;;;;;-0.30;84.17;98384.47;4975614;28;19922;-65
2023/01/26 21:03:02;;;;;;;;;;;;;;;-0.30;83.48;98377.56;4974960;28;19922;-64
2023/01/26 21:05:27;;;;;;;;;;;;;;;-0.32;82.95;98375.91;4971910;28;19918;-65
2023/01/26 21:07:52;;;;;;;;;;;;;;;-0.31;83.55;98381.03;4974003;28;19949;-65
2023/01/26 21:10:17;;;;;;;;;;;;;;;-0.26;83.18;98375.78;4974378;28;19960;-65
2023/01/26 21:12:44;;;;;;;;;;;;;;;-0.37;82.92;98375.19;4972124;28;19954;-66
2023/01/26 21:15:09;;;;;;;;;;;;;;;-0.41;84.18;98371.81;4975732;28;20013;-65
2023/01/26 21:17:35;;;;;;;;;;;;;;;-0.19;85.70;98373.91;4975223;28;20014;-64
2023/01/26 21:20:00;;;;;;;;;;;;;;;0.17;88.53;98365.31;4975450;28;19945;-64
2023/01/26 21:22:25;;;;;;;;;;;;;;;0.32;85.34;98371.84;4974202;28;19924;-65
2023/01/26 21:24:50;;;;;;;;;;;;;;;0.66;88.63;98371.81;4972050;28;20013;-65
2023/01/26 21:27:17;;;;;;;;;;;;;;;1.08;88.39;98368.97;4989401;28;20017;-65
2023/01/26 21:29:42;;;;;;;;;;;;;;;1.16;84.83;98369.59;4973916;28;19930;-65
2023/01/26 21:32:07;;;;;;;;;;;;;;;1.08;81.91;98376.72;4975427;28;19972;-64
2023/01/26 21:34:32;;;;;;;;;;;;;;;1.34;82.99;98372.53;4971909;28;19922;-65
2023/01/26 21:36:58;;;;;;;;;;;;;;;1.29;78.58;98370.09;4975486;28;19926;-65
2023/01/26 21:39:23;;;;;;;;;;;;;;;1.21;79.08;98373.81;4973679;28;19918;-65
2023/01/26 21:41:54;;;;;;;;;;;;;;;1.44;81.00;98368.78;4973925;28;19924;-65
2023/01/26 21:44:20;;;;;;;;;;;;;;;1.84;83.67;98367.63;4973304;28;19961;-65
2023/01/26 21:46:46;;;;;;;;;;;;;;;2.20;86.95;98369.94;4968204;28;20390;-65
2023/01/26 21:49:11;;;;;;;;;;;;;;;2.46;87.40;98364.75;4989989;28;19965;-64
2023/01/26 21:54:21;;;;;;;;;;;;;;;2.52;76.33;98355.94;4971908;28;19973;-65
2023/01/26 21:56:46;;;;;;;;;;;;;;;1.85;75.08;98364.97;4972911;28;19926;-65
2023/01/26 21:59:13;;;;;;;;;;;;;;;1.89;78.84;98363.13;4973482;28;19926;-66
2023/01/26 22:01:40;;;;;;;;;;;;;;;1.72;75.56;98357.63;4974742;28;19924;-65
2023/01/26 22:04:08;;;;;;;;;;;;;;;2.07;79.95;98354.81;4988787;28;19937;-64
2023/01/26 22:06:34;;;;;;;;;;;;;;;2.00;74.60;98348.16;4970431;28;20027;-65
2023/01/26 22:08:59;;;;;;;;;;;;;;;2.10;78.50;98343.53;4967425;28;19922;-65
2023/01/26 22:11:25;;;;;;;;;;;;;;;1.96;75.58;98343.97;4974907;28;19922;-65
2023/01/26 22:13:50;;;;;;;;;;;;;;;1.78;74.50;98352.28;4973240;28;20042;-66
2023/01/26 22:16:15;;;;;;;;;;;;;;;1.69;74.44;98344.78;4973265;28;20434;-65
2023/01/26 22:18:40;;;;;;;;;;;;;;;1.42;75.57;98349.91;4973713;28;20356;-65
2023/01/26 22:21:06;;;;;;;;;;;;;;;1.63;76.13;98344.09;4972110;28;20356;-65
2023/01/26 22:23:34;;;;;;;;;;;;;;;1.41;74.48;98343.91;4973171;28;19927;-64
2023/01/26 22:26:03;;;;;;;;;;;;;;;1.31;74.88;98349.41;4972455;28;19918;-64
2023/01/26 22:28:29;;;;;;;;;;;;;;;1.26;77.34;98346.09;4972625;28;20020;-65
2023/01/26 22:31:01;;;;;;;;;;;;;;;1.49;79.69;98348.84;4971634;28;20004;-65
2023/01/26 22:33:26;;;;;;;;;;;;;;;1.80;80.90;98350.50;4972829;28;20374;-65
2023/01/26 22:35:59;;;;;;;;;;;;;;;2.19;82.81;98343.22;4972500;28;19922;-65
2023/01/26 22:38:24;;;;;;;;;;;;;;;2.27;77.38;98345.53;4972473;28;19918;-65
2023/01/26 22:40:49;;;;;;;;;;;;;;;2.47;78.42;98342.28;4971890;28;19924;-64
2023/01/26 22:43:14;;;;;;;;;;;;;;;2.37;76.51;98339.16;4973613;28;20405;-65
2023/01/26 22:45:40;;;;;;;;;;;;;;;2.64;78.60;98333.94;4973896;28;20286;-65
2023/01/26 22:48:05;;;;;;;;;;;;;;;2.98;82.99;98334.47;4973597;28;20472;-65
2023/01/26 22:50:30;;;;;;;;;;;;;;;3.16;81.98;98332.09;4969200;28;19918;-66
2023/01/26 22:52:56;;;;;;;;;;;;;;;3.35;81.96;98327.94;4971791;28;19965;-64
2023/01/26 22:55:21;;;;;;;;;;;;;;;3.40;77.91;98325.16;4973110;28;19954;-65
2023/01/26 22:57:46;;;;;;;;;;;;;;;3.57;80.91;98323.59;4973852;28;19918;-64
2023/01/26 23:00:12;;;;;;;;;;;;;;;3.42;75.87;98323.38;4973406;28;20301;-64
2023/01/26 23:02:37;;;;;;;;;;;;;;;3.55;78.15;98334.97;4971915;28;20270;-65
2023/01/26 23:05:02;;;;;;;;;;;;;;;3.28;72.40;98334.25;4972805;28;19922;-65
2023/01/26 23:07:27;;;;;;;;;;;;;;;3.31;70.04;98336.72;4973233;28;19941;-65
2023/01/26 23:09:53;;;;;;;;;;;;;;;2.91;68.82;98332.16;4983392;28;19918;-64
2023/01/26 23:12:18;;;;;;;;;;;;;;;2.60;69.14;98335.81;4973027;28;19918;-65
2023/01/26 23:14:43;;;;;;;;;;;;;;;2.81;75.73;98332.47;4972789;28;19918;-65
2023/01/26 23:17:08;;;;;;;;;;;;;;;2.86;75.84;98327.13;4973499;28;19922;-64
2023/01/26 23:19:33;;;;;;;;;;;;;;;2.87;72.42;98321.03;4970997;28;19965;-66
2023/01/26 23:21:59;;;;;;;;;;;;;;;2.96;75.13;98318.13;4971704;28;19925;-64
2023/01/26 23:24:24;;;;;;;;;;;;;;;2.77;73.55;98319.69;4972375;28;19926;-66
2023/01/26 23:26:49;;;;;;;;;;;;;;;2.64;72.12;98315.81;4973417;28;19914;-64
2023/01/26 23:29:14;;;;;;;;;;;;;;;2.71;72.15;98314.72;4973012;28;20322;-64
2023/01/26 23:31:39;;;;;;;;;;;;;;;2.47;71.59;98321.59;4971178;28;20385;-65
2023/01/26 23:34:05;;;;;;;;;;;;;;;2.45;74.32;98319.06;4971796;28;20365;-63
2023/01/26 23:36:30;;;;;;;;;;;;;;;2.70;76.22;98318.22;4972162;28;19922;-64
2023/01/26 23:38:55;;;;;;;;;;;;;;;2.74;75.69;98319.78;4972771;28;19925;-65
2023/01/26 23:41:20;;;;;;;;;;;;;;;3.04;79.94;98318.69;4971973;28;19918;-65
2023/01/26 23:43:46;;;;;;;;;;;;;;;3.36;81.92;98326.19;4973069;28;19914;-65
2023/01/26 23:46:11;;;;;;;;;;;;;;;3.60;82.16;98319.22;4972536;28;20022;-64
2023/01/26 23:48:36;;;;;;;;;;;;;;;3.47;74.42;98318.84;4971748;28;19926;-65
2023/01/26 23:51:02;;;;;;;;;;;;;;;2.85;71.24;98312.47;4968836;28;19922;-64
2023/01/26 23:53:28;;;;;;;;;;;;;;;2.68;70.92;98314.81;4968625;28;20408;-66
2023/01/26 23:55:53;;;;;;;;;;;;;;;2.59;71.83;98314.25;4973094;28;19953;-65
2023/01/26 23:58:19;;;;;;;;;;;;;;;2.61;73.60;98315.06;4971313;28;19956;-65
